sensor_id;sensor_type;location;lat;lon;timestamp;temperature;humidity
2030;DHT22;1020;48.854;8.830;2022-08-03T00:00:52;19.50;99.90
2030;DHT22;1020;48.854;8.830;2022-08-03T00:03:19;19.50;99.90
2030;DHT22;1020;48.854;8.830;2022-08-03T00:05:46;19.40;99.90
2030;DHT22;1020;48.854;8.830;2022-08-03T00:08:14;19.40;99.90
2030;DHT22;1020;48.854;8.830;2022-08-03T00:10:41;19.40;99.90
2030;DHT22;1020;48.854;8.830;2022-08-03T00:13:08;19.50;99.90
2030;DHT22;1020;48.854;8.830;2022-08-03T00:15:38;19.50;99.90
2030;DHT22;1020;48.854;8.830;2022-08-03T00:18:05;19.50;99.90
2030;DHT22;1020;48.854;8.830;2022-08-03T00:20:32;19.40;99.90
2030;DHT22;1020;48.854;8.830;2022-08-03T00:22:58;19.50;99.90
2030;DHT22;1020;48.854;8.830;2022-08-03T00:25:26;19.40;99.90
2030;DHT22;1020;48.854;8.830;2022-08-03T00:27:53;19.40;99.90
2030;DHT22;1020;48.854;8.830;2022-08-03T00:30:20;19.40;99.90
2030;DHT22;1020;48.854;8.830;2022-08-03T00:32:47;19.40;99.90
2030;DHT22;1020;48.854;8.830;2022-08-03T00:35:14;19.30;99.90
2030;DHT22;1020;48.854;8.830;2022-08-03T00:37:40;19.20;99.90
2030;DHT22;1020;48.854;8.830;2022-08-03T00:40:10;19.20;99.90
2030;DHT22;1020;48.854;8.830;2022-08-03T00:42:47;19.20;99.90
2030;DHT22;1020;48.854;8.830;2022-08-03T00:45:15;19.20;99.90
2030;DHT22;1020;48.854;8.830;2022-08-03T00:47:42;16.90;99.90
2030;DHT22;1020;48.854;8.830;2022-08-03T00:50:09;19.20;99.90
2030;DHT22;1020;48.854;8.830;2022-08-03T00:52:36;19.10;99.90
2030;DHT22;1020;48.854;8.830;2022-08-03T00:55:03;19.10;99.90
2030;DHT22;1020;48.854;8.830;2022-08-03T00:57:31;19.10;99.90
2030;DHT22;1020;48.854;8.830;2022-08-03T00:59:59;19.10;99.90
2030;DHT22;1020;48.854;8.830;2022-08-03T01:02:27;19.10;99.90
2030;DHT22;1020;48.854;8.830;2022-08-03T01:04:54;19.00;99.90
2030;DHT22;1020;48.854;8.830;2022-08-03T01:07:26;19.00;99.90
2030;DHT22;1020;48.854;8.830;2022-08-03T01:10:00;19.00;99.90
2030;DHT22;1020;48.854;8.830;2022-08-03T01:12:44;18.90;99.90
2030;DHT22;1020;48.854;8.830;2022-08-03T01:15:20;18.80;99.90
2030;DHT22;1020;48.854;8.830;2022-08-03T01:17:54;19.80;99.90
2030;DHT22;1020;48.854;8.830;2022-08-03T01:20:23;16.80;1.00
2030;DHT22;1020;48.854;8.830;2022-08-03T01:23:14;18.90;1.00
2030;DHT22;1020;48.854;8.830;2022-08-03T01:25:58;18.80;1.00
2030;DHT22;1020;48.854;8.830;2022-08-03T01:31:26;18.80;1.00
2030;DHT22;1020;48.854;8.830;2022-08-03T01:33:58;18.70;1.00
2030;DHT22;1020;48.854;8.830;2022-08-03T01:36:30;20.20;1.00
2030;DHT22;1020;48.854;8.830;2022-08-03T01:39:00;18.70;1.00
2030;DHT22;1020;48.854;8.830;2022-08-03T01:41:32;18.60;1.00
2030;DHT22;1020;48.854;8.830;2022-08-03T01:44:00;18.60;1.00
2030;DHT22;1020;48.854;8.830;2022-08-03T01:46:30;18.50;1.00
2030;DHT22;1020;48.854;8.830;2022-08-03T01:48:58;18.50;1.00
2030;DHT22;1020;48.854;8.830;2022-08-03T01:51:26;18.50;1.00
2030;DHT22;1020;48.854;8.830;2022-08-03T01:53:54;18.50;1.00
2030;DHT22;1020;48.854;8.830;2022-08-03T01:56:23;18.50;1.00
2030;DHT22;1020;48.854;8.830;2022-08-03T01:58:51;18.50;1.00
2030;DHT22;1020;48.854;8.830;2022-08-03T02:01:20;18.50;1.00
2030;DHT22;1020;48.854;8.830;2022-08-03T02:03:49;18.50;1.00
2030;DHT22;1020;48.854;8.830;2022-08-03T02:06:19;18.40;1.00
2030;DHT22;1020;48.854;8.830;2022-08-03T02:08:47;18.30;1.00
2030;DHT22;1020;48.854;8.830;2022-08-03T02:11:15;18.30;1.00
2030;DHT22;1020;48.854;8.830;2022-08-03T02:13:43;18.30;1.00
2030;DHT22;1020;48.854;8.830;2022-08-03T02:16:12;18.30;1.00
2030;DHT22;1020;48.854;8.830;2022-08-03T02:18:40;18.30;1.00
2030;DHT22;1020;48.854;8.830;2022-08-03T02:21:09;18.20;1.00
2030;DHT22;1020;48.854;8.830;2022-08-03T02:23:37;18.20;1.00
2030;DHT22;1020;48.854;8.830;2022-08-03T02:26:07;18.20;1.00
2030;DHT22;1020;48.854;8.830;2022-08-03T02:28:39;18.10;1.00
2030;DHT22;1020;48.854;8.830;2022-08-03T02:31:12;18.00;1.00
2030;DHT22;1020;48.854;8.830;2022-08-03T02:33:42;18.00;1.00
2030;DHT22;1020;48.854;8.830;2022-08-03T02:36:13;18.00;1.00
2030;DHT22;1020;48.854;8.830;2022-08-03T02:38:42;17.90;1.00
2030;DHT22;1020;48.854;8.830;2022-08-03T02:41:14;18.00;1.00
2030;DHT22;1020;48.854;8.830;2022-08-03T02:43:44;17.90;1.00
2030;DHT22;1020;48.854;8.830;2022-08-03T02:46:16;18.00;1.00
2030;DHT22;1020;48.854;8.830;2022-08-03T02:48:45;17.90;1.00
2030;DHT22;1020;48.854;8.830;2022-08-03T02:51:15;17.90;1.00
2030;DHT22;1020;48.854;8.830;2022-08-03T02:53:43;17.90;1.00
2030;DHT22;1020;48.854;8.830;2022-08-03T02:56:11;17.90;1.00
2030;DHT22;1020;48.854;8.830;2022-08-03T02:58:41;17.90;1.00
2030;DHT22;1020;48.854;8.830;2022-08-03T03:01:09;17.90;1.00
2030;DHT22;1020;48.854;8.830;2022-08-03T03:03:37;17.90;1.00
2030;DHT22;1020;48.854;8.830;2022-08-03T03:06:06;17.90;1.00
2030;DHT22;1020;48.854;8.830;2022-08-03T03:08:36;17.90;1.00
2030;DHT22;1020;48.854;8.830;2022-08-03T03:11:03;17.90;1.00
2030;DHT22;1020;48.854;8.830;2022-08-03T03:13:30;17.80;1.00
2030;DHT22;1020;48.854;8.830;2022-08-03T03:15:59;17.80;1.00
2030;DHT22;1020;48.854;8.830;2022-08-03T03:18:27;17.80;1.00
2030;DHT22;1020;48.854;8.830;2022-08-03T03:20:55;17.80;1.00
2030;DHT22;1020;48.854;8.830;2022-08-03T03:23:24;17.90;1.00
2030;DHT22;1020;48.854;8.830;2022-08-03T03:25:53;17.80;1.00
2030;DHT22;1020;48.854;8.830;2022-08-03T03:28:23;17.70;1.00
2030;DHT22;1020;48.854;8.830;2022-08-03T03:30:50;17.70;1.00
2030;DHT22;1020;48.854;8.830;2022-08-03T03:33:17;17.70;1.00
2030;DHT22;1020;48.854;8.830;2022-08-03T03:35:44;17.70;1.00
2030;DHT22;1020;48.854;8.830;2022-08-03T03:38:11;17.70;1.00
2030;DHT22;1020;48.854;8.830;2022-08-03T03:40:38;17.80;1.00
2030;DHT22;1020;48.854;8.830;2022-08-03T03:43:08;17.70;1.00
2030;DHT22;1020;48.854;8.830;2022-08-03T03:45:35;17.70;1.00
2030;DHT22;1020;48.854;8.830;2022-08-03T03:48:03;17.70;1.00
2030;DHT22;1020;48.854;8.830;2022-08-03T03:50:32;17.70;1.00
2030;DHT22;1020;48.854;8.830;2022-08-03T03:52:59;17.70;1.00
2030;DHT22;1020;48.854;8.830;2022-08-03T03:55:26;17.70;1.00
2030;DHT22;1020;48.854;8.830;2022-08-03T03:57:53;17.80;1.00
2030;DHT22;1020;48.854;8.830;2022-08-03T04:00:22;17.70;1.00
2030;DHT22;1020;48.854;8.830;2022-08-03T04:02:48;17.70;1.00
2030;DHT22;1020;48.854;8.830;2022-08-03T04:05:15;17.70;1.00
2030;DHT22;1020;48.854;8.830;2022-08-03T04:08:02;17.70;1.00
2030;DHT22;1020;48.854;8.830;2022-08-03T04:10:55;17.70;1.00
2030;DHT22;1020;48.854;8.830;2022-08-03T04:13:32;17.60;1.00
2030;DHT22;1020;48.854;8.830;2022-08-03T04:16:02;17.60;1.00
2030;DHT22;1020;48.854;8.830;2022-08-03T04:18:33;17.50;1.00
2030;DHT22;1020;48.854;8.830;2022-08-03T04:21:02;17.60;1.00
2030;DHT22;1020;48.854;8.830;2022-08-03T04:23:32;17.50;1.00
2030;DHT22;1020;48.854;8.830;2022-08-03T04:26:01;17.50;1.00
2030;DHT22;1020;48.854;8.830;2022-08-03T04:28:30;17.60;1.00
2030;DHT22;1020;48.854;8.830;2022-08-03T04:30:58;17.70;1.00
2030;DHT22;1020;48.854;8.830;2022-08-03T04:33:28;17.70;1.00
2030;DHT22;1020;48.854;8.830;2022-08-03T04:35:58;17.70;1.00
2030;DHT22;1020;48.854;8.830;2022-08-03T04:38:26;17.70;1.00
2030;DHT22;1020;48.854;8.830;2022-08-03T04:40:55;17.70;1.00
2030;DHT22;1020;48.854;8.830;2022-08-03T04:43:23;17.70;1.00
2030;DHT22;1020;48.854;8.830;2022-08-03T04:45:51;17.70;1.00
2030;DHT22;1020;48.854;8.830;2022-08-03T04:48:19;17.70;1.00
2030;DHT22;1020;48.854;8.830;2022-08-03T04:50:47;17.70;1.00
2030;DHT22;1020;48.854;8.830;2022-08-03T04:53:15;17.70;1.00
2030;DHT22;1020;48.854;8.830;2022-08-03T04:55:42;17.80;1.00
2030;DHT22;1020;48.854;8.830;2022-08-03T04:58:09;17.90;1.00
2030;DHT22;1020;48.854;8.830;2022-08-03T05:00:37;18.00;1.00
2030;DHT22;1020;48.854;8.830;2022-08-03T05:03:03;18.00;1.00
2030;DHT22;1020;48.854;8.830;2022-08-03T05:05:30;18.10;1.00
2030;DHT22;1020;48.854;8.830;2022-08-03T05:07:58;18.20;1.00
2030;DHT22;1020;48.854;8.830;2022-08-03T05:10:25;18.20;1.00
2030;DHT22;1020;48.854;8.830;2022-08-03T05:12:52;18.30;1.00
2030;DHT22;1020;48.854;8.830;2022-08-03T05:15:19;18.40;1.00
2030;DHT22;1020;48.854;8.830;2022-08-03T05:17:46;18.40;1.00
2030;DHT22;1020;48.854;8.830;2022-08-03T05:20:13;18.40;1.00
2030;DHT22;1020;48.854;8.830;2022-08-03T05:22:40;18.50;1.00
2030;DHT22;1020;48.854;8.830;2022-08-03T05:25:08;18.50;1.00
2030;DHT22;1020;48.854;8.830;2022-08-03T05:27:35;18.50;1.00
2030;DHT22;1020;48.854;8.830;2022-08-03T05:30:02;18.60;1.00
2030;DHT22;1020;48.854;8.830;2022-08-03T05:32:29;18.70;1.00
2030;DHT22;1020;48.854;8.830;2022-08-03T05:34:56;18.80;1.00
2030;DHT22;1020;48.854;8.830;2022-08-03T05:37:23;18.90;1.00
2030;DHT22;1020;48.854;8.830;2022-08-03T05:39:50;19.10;1.00
2030;DHT22;1020;48.854;8.830;2022-08-03T05:42:18;19.20;1.00
2030;DHT22;1020;48.854;8.830;2022-08-03T05:44:45;19.40;1.00
2030;DHT22;1020;48.854;8.830;2022-08-03T05:47:12;19.60;1.00
2030;DHT22;1020;48.854;8.830;2022-08-03T05:49:38;19.70;1.00
2030;DHT22;1020;48.854;8.830;2022-08-03T05:52:05;19.80;1.00
2030;DHT22;1020;48.854;8.830;2022-08-03T05:54:32;20.00;1.00
2030;DHT22;1020;48.854;8.830;2022-08-03T05:56:59;20.10;1.00
2030;DHT22;1020;48.854;8.830;2022-08-03T05:59:27;20.20;1.00
2030;DHT22;1020;48.854;8.830;2022-08-03T06:01:53;20.40;1.00
2030;DHT22;1020;48.854;8.830;2022-08-03T06:04:20;20.60;1.00
2030;DHT22;1020;48.854;8.830;2022-08-03T06:06:47;20.80;99.90
2030;DHT22;1020;48.854;8.830;2022-08-03T06:09:15;21.00;99.90
2030;DHT22;1020;48.854;8.830;2022-08-03T06:11:42;21.30;99.90
2030;DHT22;1020;48.854;8.830;2022-08-03T06:14:09;21.50;99.90
2030;DHT22;1020;48.854;8.830;2022-08-03T06:16:37;21.70;99.90
2030;DHT22;1020;48.854;8.830;2022-08-03T06:19:04;21.90;99.90
2030;DHT22;1020;48.854;8.830;2022-08-03T06:21:30;22.10;99.90
2030;DHT22;1020;48.854;8.830;2022-08-03T06:26:26;22.50;99.90
2030;DHT22;1020;48.854;8.830;2022-08-03T06:28:53;22.70;99.90
2030;DHT22;1020;48.854;8.830;2022-08-03T06:31:23;22.90;99.90
2030;DHT22;1020;48.854;8.830;2022-08-03T06:33:52;23.10;99.90
2030;DHT22;1020;48.854;8.830;2022-08-03T06:36:20;23.30;99.90
2030;DHT22;1020;48.854;8.830;2022-08-03T06:38:46;23.30;99.90
2030;DHT22;1020;48.854;8.830;2022-08-03T06:41:13;23.60;99.90
2030;DHT22;1020;48.854;8.830;2022-08-03T06:43:40;23.70;99.90
2030;DHT22;1020;48.854;8.830;2022-08-03T06:46:07;23.90;99.90
2030;DHT22;1020;48.854;8.830;2022-08-03T06:48:35;24.10;99.90
2030;DHT22;1020;48.854;8.830;2022-08-03T06:51:03;24.20;99.90
2030;DHT22;1020;48.854;8.830;2022-08-03T06:53:30;24.40;99.90
2030;DHT22;1020;48.854;8.830;2022-08-03T06:55:57;24.60;99.90
2030;DHT22;1020;48.854;8.830;2022-08-03T06:58:23;24.60;99.90
2030;DHT22;1020;48.854;8.830;2022-08-03T07:00:50;24.70;99.90
2030;DHT22;1020;48.854;8.830;2022-08-03T07:03:17;24.70;99.90
2030;DHT22;1020;48.854;8.830;2022-08-03T07:05:44;25.00;99.90
2030;DHT22;1020;48.854;8.830;2022-08-03T07:08:13;25.10;99.90
2030;DHT22;1020;48.854;8.830;2022-08-03T07:10:40;25.20;99.90
2030;DHT22;1020;48.854;8.830;2022-08-03T07:13:06;25.30;99.90
2030;DHT22;1020;48.854;8.830;2022-08-03T07:15:34;25.50;99.90
2030;DHT22;1020;48.854;8.830;2022-08-03T07:18:00;25.70;99.90
2030;DHT22;1020;48.854;8.830;2022-08-03T07:20:27;26.10;99.90
2030;DHT22;1020;48.854;8.830;2022-08-03T07:22:54;26.30;99.90
2030;DHT22;1020;48.854;8.830;2022-08-03T07:25:22;26.70;99.90
2030;DHT22;1020;48.854;8.830;2022-08-03T07:27:49;27.10;99.90
2030;DHT22;1020;48.854;8.830;2022-08-03T07:30:16;27.30;99.90
2030;DHT22;1020;48.854;8.830;2022-08-03T07:32:43;27.70;99.90
2030;DHT22;1020;48.854;8.830;2022-08-03T07:35:10;28.20;99.90
2030;DHT22;1020;48.854;8.830;2022-08-03T07:37:37;28.90;99.90
2030;DHT22;1020;48.854;8.830;2022-08-03T07:40:05;29.70;99.90
2030;DHT22;1020;48.854;8.830;2022-08-03T07:42:34;30.20;99.90
2030;DHT22;1020;48.854;8.830;2022-08-03T07:45:00;30.40;99.90
2030;DHT22;1020;48.854;8.830;2022-08-03T07:47:29;30.20;99.90
2030;DHT22;1020;48.854;8.830;2022-08-03T07:49:56;30.40;99.90
2030;DHT22;1020;48.854;8.830;2022-08-03T07:52:23;30.70;99.90
2030;DHT22;1020;48.854;8.830;2022-08-03T07:55:08;30.60;99.90
2030;DHT22;1020;48.854;8.830;2022-08-03T07:57:36;30.30;99.90
2030;DHT22;1020;48.854;8.830;2022-08-03T08:00:06;29.40;99.90
2030;DHT22;1020;48.854;8.830;2022-08-03T08:02:34;30.80;99.90
2030;DHT22;1020;48.854;8.830;2022-08-03T08:05:02;30.40;99.90
2030;DHT22;1020;48.854;8.830;2022-08-03T08:07:29;30.60;99.90
2030;DHT22;1020;48.854;8.830;2022-08-03T08:09:56;31.30;99.90
2030;DHT22;1020;48.854;8.830;2022-08-03T08:12:23;31.60;99.90
2030;DHT22;1020;48.854;8.830;2022-08-03T08:14:51;32.00;99.90
2030;DHT22;1020;48.854;8.830;2022-08-03T08:17:17;31.80;99.90
2030;DHT22;1020;48.854;8.830;2022-08-03T08:19:44;31.70;99.90
2030;DHT22;1020;48.854;8.830;2022-08-03T08:22:12;31.10;99.90
2030;DHT22;1020;48.854;8.830;2022-08-03T08:24:39;30.90;99.90
2030;DHT22;1020;48.854;8.830;2022-08-03T08:27:08;29.00;99.90
2030;DHT22;1020;48.854;8.830;2022-08-03T08:29:36;30.80;99.90
2030;DHT22;1020;48.854;8.830;2022-08-03T08:32:04;31.60;99.90
2030;DHT22;1020;48.854;8.830;2022-08-03T08:34:31;32.40;99.90
2030;DHT22;1020;48.854;8.830;2022-08-03T08:36:58;32.80;99.90
2030;DHT22;1020;48.854;8.830;2022-08-03T08:39:25;32.70;99.90
2030;DHT22;1020;48.854;8.830;2022-08-03T08:41:51;32.50;99.90
2030;DHT22;1020;48.854;8.830;2022-08-03T08:44:18;32.90;99.90
2030;DHT22;1020;48.854;8.830;2022-08-03T08:46:46;32.10;99.90
2030;DHT22;1020;48.854;8.830;2022-08-03T08:49:16;31.60;99.90
2030;DHT22;1020;48.854;8.830;2022-08-03T08:51:46;32.80;99.90
2030;DHT22;1020;48.854;8.830;2022-08-03T08:54:16;32.40;99.90
2030;DHT22;1020;48.854;8.830;2022-08-03T08:56:47;33.30;99.90
2030;DHT22;1020;48.854;8.830;2022-08-03T08:59:15;34.40;99.90
2030;DHT22;1020;48.854;8.830;2022-08-03T09:01:41;33.50;99.90
2030;DHT22;1020;48.854;8.830;2022-08-03T09:04:08;33.30;99.90
2030;DHT22;1020;48.854;8.830;2022-08-03T09:06:36;32.70;99.90
2030;DHT22;1020;48.854;8.830;2022-08-03T09:09:05;32.60;99.90
2030;DHT22;1020;48.854;8.830;2022-08-03T09:11:32;32.80;99.90
2030;DHT22;1020;48.854;8.830;2022-08-03T09:14:00;32.50;99.90
2030;DHT22;1020;48.854;8.830;2022-08-03T09:16:27;32.20;99.90
2030;DHT22;1020;48.854;8.830;2022-08-03T09:18:53;32.70;99.90
2030;DHT22;1020;48.854;8.830;2022-08-03T09:21:22;32.60;99.90
2030;DHT22;1020;48.854;8.830;2022-08-03T09:23:53;33.20;99.90
2030;DHT22;1020;48.854;8.830;2022-08-03T09:26:21;33.90;99.90
2030;DHT22;1020;48.854;8.830;2022-08-03T09:28:54;33.50;99.90
2030;DHT22;1020;48.854;8.830;2022-08-03T09:31:32;32.10;99.90
2030;DHT22;1020;48.854;8.830;2022-08-03T09:34:01;32.70;99.90
2030;DHT22;1020;48.854;8.830;2022-08-03T09:36:36;33.50;99.90
2030;DHT22;1020;48.854;8.830;2022-08-03T09:39:06;33.70;99.90
2030;DHT22;1020;48.854;8.830;2022-08-03T09:41:36;34.00;99.90
2030;DHT22;1020;48.854;8.830;2022-08-03T09:44:03;34.40;99.90
2030;DHT22;1020;48.854;8.830;2022-08-03T09:46:30;35.00;99.90
2030;DHT22;1020;48.854;8.830;2022-08-03T09:49:10;34.70;99.90
2030;DHT22;1020;48.854;8.830;2022-08-03T09:51:37;34.30;99.90
2030;DHT22;1020;48.854;8.830;2022-08-03T09:54:06;34.50;99.90
2030;DHT22;1020;48.854;8.830;2022-08-03T09:56:40;33.80;99.90
2030;DHT22;1020;48.854;8.830;2022-08-03T09:59:07;33.70;99.90
2030;DHT22;1020;48.854;8.830;2022-08-03T10:01:34;34.40;99.90
2030;DHT22;1020;48.854;8.830;2022-08-03T10:04:02;34.20;99.90
2030;DHT22;1020;48.854;8.830;2022-08-03T10:06:29;34.40;99.90
2030;DHT22;1020;48.854;8.830;2022-08-03T10:09:06;35.60;99.90
2030;DHT22;1020;48.854;8.830;2022-08-03T10:11:33;36.60;99.90
2030;DHT22;1020;48.854;8.830;2022-08-03T10:14:02;36.50;99.90
2030;DHT22;1020;48.854;8.830;2022-08-03T10:16:32;35.70;99.90
2030;DHT22;1020;48.854;8.830;2022-08-03T10:19:00;36.10;99.90
2030;DHT22;1020;48.854;8.830;2022-08-03T10:21:31;36.50;99.90
2030;DHT22;1020;48.854;8.830;2022-08-03T10:24:02;37.90;99.90
2030;DHT22;1020;48.854;8.830;2022-08-03T10:26:33;38.60;99.90
2030;DHT22;1020;48.854;8.830;2022-08-03T10:29:02;36.90;99.90
2030;DHT22;1020;48.854;8.830;2022-08-03T10:31:34;37.00;99.90
2030;DHT22;1020;48.854;8.830;2022-08-03T10:34:04;36.80;99.90
2030;DHT22;1020;48.854;8.830;2022-08-03T10:36:32;35.80;99.90
2030;DHT22;1020;48.854;8.830;2022-08-03T10:39:01;36.10;99.90
2030;DHT22;1020;48.854;8.830;2022-08-03T10:41:34;35.30;99.90
2030;DHT22;1020;48.854;8.830;2022-08-03T10:44:05;34.60;99.90
2030;DHT22;1020;48.854;8.830;2022-08-03T10:46:33;34.80;99.90
2030;DHT22;1020;48.854;8.830;2022-08-03T10:49:01;35.10;99.90
2030;DHT22;1020;48.854;8.830;2022-08-03T10:51:28;35.20;99.90
2030;DHT22;1020;48.854;8.830;2022-08-03T10:53:57;35.90;99.90
2030;DHT22;1020;48.854;8.830;2022-08-03T10:56:41;36.70;99.90
2030;DHT22;1020;48.854;8.830;2022-08-03T10:59:57;37.00;99.90
2030;DHT22;1020;48.854;8.830;2022-08-03T11:03:01;36.80;99.90
2030;DHT22;1020;48.854;8.830;2022-08-03T11:05:29;37.60;99.90
2030;DHT22;1020;48.854;8.830;2022-08-03T11:08:22;37.10;99.90
2030;DHT22;1020;48.854;8.830;2022-08-03T11:10:50;36.20;99.90
2030;DHT22;1020;48.854;8.830;2022-08-03T11:13:20;36.60;99.90
2030;DHT22;1020;48.854;8.830;2022-08-03T11:15:48;37.30;99.90
2030;DHT22;1020;48.854;8.830;2022-08-03T11:18:16;36.10;99.90
2030;DHT22;1020;48.854;8.830;2022-08-03T11:20:47;36.00;99.90
2030;DHT22;1020;48.854;8.830;2022-08-03T11:23:16;36.50;99.90
2030;DHT22;1020;48.854;8.830;2022-08-03T11:26:12;36.30;99.90
2030;DHT22;1020;48.854;8.830;2022-08-03T11:28:42;38.20;99.90
2030;DHT22;1020;48.854;8.830;2022-08-03T11:34:21;39.20;99.90
2030;DHT22;1020;48.854;8.830;2022-08-03T11:37:21;38.40;99.90
2030;DHT22;1020;48.854;8.830;2022-08-03T11:39:53;37.60;99.90
2030;DHT22;1020;48.854;8.830;2022-08-03T11:42:42;36.60;99.90
2030;DHT22;1020;48.854;8.830;2022-08-03T11:45:19;37.70;99.90
2030;DHT22;1020;48.854;8.830;2022-08-03T11:47:46;37.20;99.90
2030;DHT22;1020;48.854;8.830;2022-08-03T11:50:14;38.10;99.90
2030;DHT22;1020;48.854;8.830;2022-08-03T11:52:43;38.60;99.90
2030;DHT22;1020;48.854;8.830;2022-08-03T11:55:16;39.60;99.90
2030;DHT22;1020;48.854;8.830;2022-08-03T11:57:45;38.90;99.90
2030;DHT22;1020;48.854;8.830;2022-08-03T12:00:24;38.40;99.90
2030;DHT22;1020;48.854;8.830;2022-08-03T12:02:55;37.50;99.90
2030;DHT22;1020;48.854;8.830;2022-08-03T12:05:32;38.00;99.90
2030;DHT22;1020;48.854;8.830;2022-08-03T12:07:59;39.90;99.90
2030;DHT22;1020;48.854;8.830;2022-08-03T12:10:26;39.70;99.90
2030;DHT22;1020;48.854;8.830;2022-08-03T12:12:55;37.60;99.90
2030;DHT22;1020;48.854;8.830;2022-08-03T12:15:26;37.10;99.90
2030;DHT22;1020;48.854;8.830;2022-08-03T12:17:53;36.60;99.90
2030;DHT22;1020;48.854;8.830;2022-08-03T12:20:21;37.20;99.90
2030;DHT22;1020;48.854;8.830;2022-08-03T12:22:48;38.80;99.90
2030;DHT22;1020;48.854;8.830;2022-08-03T12:25:20;38.80;99.90
2030;DHT22;1020;48.854;8.830;2022-08-03T12:27:48;38.90;99.90
2030;DHT22;1020;48.854;8.830;2022-08-03T12:30:15;39.70;99.90
2030;DHT22;1020;48.854;8.830;2022-08-03T12:32:43;40.40;99.90
2030;DHT22;1020;48.854;8.830;2022-08-03T12:35:20;41.40;99.90
2030;DHT22;1020;48.854;8.830;2022-08-03T12:37:48;40.10;99.90
2030;DHT22;1020;48.854;8.830;2022-08-03T12:40:23;39.50;99.90
2030;DHT22;1020;48.854;8.830;2022-08-03T12:42:50;38.90;99.90
2030;DHT22;1020;48.854;8.830;2022-08-03T12:45:18;38.00;99.90
2030;DHT22;1020;48.854;8.830;2022-08-03T12:47:54;37.80;99.90
2030;DHT22;1020;48.854;8.830;2022-08-03T12:50:29;38.60;99.90
2030;DHT22;1020;48.854;8.830;2022-08-03T12:52:57;39.90;99.90
2030;DHT22;1020;48.854;8.830;2022-08-03T12:55:24;38.70;99.90
2030;DHT22;1020;48.854;8.830;2022-08-03T12:57:58;38.70;99.90
2030;DHT22;1020;48.854;8.830;2022-08-03T13:00:24;39.60;99.90
2030;DHT22;1020;48.854;8.830;2022-08-03T13:02:59;38.90;99.90
2030;DHT22;1020;48.854;8.830;2022-08-03T13:05:28;39.90;99.90
2030;DHT22;1020;48.854;8.830;2022-08-03T13:07:55;40.90;99.90
2030;DHT22;1020;48.854;8.830;2022-08-03T13:10:29;40.10;99.90
2030;DHT22;1020;48.854;8.830;2022-08-03T13:12:57;39.90;99.90
2030;DHT22;1020;48.854;8.830;2022-08-03T13:15:25;40.50;99.90
2030;DHT22;1020;48.854;8.830;2022-08-03T13:17:53;40.40;99.90
2030;DHT22;1020;48.854;8.830;2022-08-03T13:20:22;40.80;99.90
2030;DHT22;1020;48.854;8.830;2022-08-03T13:22:49;41.80;99.90
2030;DHT22;1020;48.854;8.830;2022-08-03T13:25:16;42.80;99.90
2030;DHT22;1020;48.854;8.830;2022-08-03T13:27:44;43.50;99.90
2030;DHT22;1020;48.854;8.830;2022-08-03T13:30:12;43.60;99.90
2030;DHT22;1020;48.854;8.830;2022-08-03T13:32:39;44.00;99.90
2030;DHT22;1020;48.854;8.830;2022-08-03T13:35:07;42.70;99.90
2030;DHT22;1020;48.854;8.830;2022-08-03T13:37:36;40.80;99.90
2030;DHT22;1020;48.854;8.830;2022-08-03T13:40:04;39.20;99.90
2030;DHT22;1020;48.854;8.830;2022-08-03T13:42:33;38.80;99.90
2030;DHT22;1020;48.854;8.830;2022-08-03T13:45:01;38.30;99.90
2030;DHT22;1020;48.854;8.830;2022-08-03T13:47:28;38.10;99.90
2030;DHT22;1020;48.854;8.830;2022-08-03T13:49:55;37.70;99.90
2030;DHT22;1020;48.854;8.830;2022-08-03T13:52:21;38.40;99.90
2030;DHT22;1020;48.854;8.830;2022-08-03T13:54:49;38.40;99.90
2030;DHT22;1020;48.854;8.830;2022-08-03T13:57:16;38.80;99.90
2030;DHT22;1020;48.854;8.830;2022-08-03T13:59:43;39.60;99.90
2030;DHT22;1020;48.854;8.830;2022-08-03T14:02:10;40.10;99.90
2030;DHT22;1020;48.854;8.830;2022-08-03T14:04:36;39.40;99.90
2030;DHT22;1020;48.854;8.830;2022-08-03T14:07:03;39.20;99.90
2030;DHT22;1020;48.854;8.830;2022-08-03T14:09:30;38.90;99.90
2030;DHT22;1020;48.854;8.830;2022-08-03T14:11:59;39.00;99.90
2030;DHT22;1020;48.854;8.830;2022-08-03T14:14:25;38.50;99.90
2030;DHT22;1020;48.854;8.830;2022-08-03T14:16:52;37.80;99.90
2030;DHT22;1020;48.854;8.830;2022-08-03T14:19:19;37.40;99.90
2030;DHT22;1020;48.854;8.830;2022-08-03T14:21:46;37.70;99.90
2030;DHT22;1020;48.854;8.830;2022-08-03T14:24:12;38.70;99.90
2030;DHT22;1020;48.854;8.830;2022-08-03T14:26:39;38.60;99.90
2030;DHT22;1020;48.854;8.830;2022-08-03T14:29:07;38.70;99.90
2030;DHT22;1020;48.854;8.830;2022-08-03T14:31:35;38.70;99.90
2030;DHT22;1020;48.854;8.830;2022-08-03T14:34:01;38.90;99.90
2030;DHT22;1020;48.854;8.830;2022-08-03T14:36:28;39.00;99.90
2030;DHT22;1020;48.854;8.830;2022-08-03T14:38:55;38.80;99.90
2030;DHT22;1020;48.854;8.830;2022-08-03T14:41:22;38.10;99.90
2030;DHT22;1020;48.854;8.830;2022-08-03T14:43:48;38.50;99.90
2030;DHT22;1020;48.854;8.830;2022-08-03T14:46:17;39.00;99.90
2030;DHT22;1020;48.854;8.830;2022-08-03T14:48:43;39.20;99.90
2030;DHT22;1020;48.854;8.830;2022-08-03T14:51:10;38.80;99.90
2030;DHT22;1020;48.854;8.830;2022-08-03T14:53:37;38.40;99.90
2030;DHT22;1020;48.854;8.830;2022-08-03T14:56:04;38.00;99.90
2030;DHT22;1020;48.854;8.830;2022-08-03T14:58:31;37.40;99.90
2030;DHT22;1020;48.854;8.830;2022-08-03T15:00:58;37.30;99.90
2030;DHT22;1020;48.854;8.830;2022-08-03T15:03:26;37.50;99.90
2030;DHT22;1020;48.854;8.830;2022-08-03T15:05:54;37.10;99.90
2030;DHT22;1020;48.854;8.830;2022-08-03T15:08:23;37.10;99.90
2030;DHT22;1020;48.854;8.830;2022-08-03T15:10:50;37.20;99.90
2030;DHT22;1020;48.854;8.830;2022-08-03T15:13:18;37.50;99.90
2030;DHT22;1020;48.854;8.830;2022-08-03T15:15:45;37.60;99.90
2030;DHT22;1020;48.854;8.830;2022-08-03T15:18:12;37.60;99.90
2030;DHT22;1020;48.854;8.830;2022-08-03T15:20:40;37.80;99.90
2030;DHT22;1020;48.854;8.830;2022-08-03T15:23:07;37.70;99.90
2030;DHT22;1020;48.854;8.830;2022-08-03T15:25:34;37.80;99.90
2030;DHT22;1020;48.854;8.830;2022-08-03T15:28:00;37.70;99.90
2030;DHT22;1020;48.854;8.830;2022-08-03T15:30:27;37.90;99.90
2030;DHT22;1020;48.854;8.830;2022-08-03T15:32:55;38.20;99.90
2030;DHT22;1020;48.854;8.830;2022-08-03T15:35:22;38.50;99.90
2030;DHT22;1020;48.854;8.830;2022-08-03T15:37:50;38.30;99.90
2030;DHT22;1020;48.854;8.830;2022-08-03T15:40:17;38.10;99.90
2030;DHT22;1020;48.854;8.830;2022-08-03T15:42:44;38.10;99.90
2030;DHT22;1020;48.854;8.830;2022-08-03T15:45:11;37.80;99.90
2030;DHT22;1020;48.854;8.830;2022-08-03T15:47:38;38.10;99.90
2030;DHT22;1020;48.854;8.830;2022-08-03T15:50:05;36.30;99.90
2030;DHT22;1020;48.854;8.830;2022-08-03T15:52:32;38.50;99.90
2030;DHT22;1020;48.854;8.830;2022-08-03T15:55:00;38.50;99.90
2030;DHT22;1020;48.854;8.830;2022-08-03T15:57:27;38.30;99.90
2030;DHT22;1020;48.854;8.830;2022-08-03T15:59:53;37.80;99.90
2030;DHT22;1020;48.854;8.830;2022-08-03T16:02:20;37.40;99.90
2030;DHT22;1020;48.854;8.830;2022-08-03T16:04:47;37.40;99.90
2030;DHT22;1020;48.854;8.830;2022-08-03T16:07:14;37.70;99.90
2030;DHT22;1020;48.854;8.830;2022-08-03T16:10:02;37.50;99.90
2030;DHT22;1020;48.854;8.830;2022-08-03T16:12:29;37.10;99.90
2030;DHT22;1020;48.854;8.830;2022-08-03T16:14:56;36.60;99.90
2030;DHT22;1020;48.854;8.830;2022-08-03T16:17:24;35.90;99.90
2030;DHT22;1020;48.854;8.830;2022-08-03T16:19:50;35.70;99.90
2030;DHT22;1020;48.854;8.830;2022-08-03T16:22:17;36.00;99.90
2030;DHT22;1020;48.854;8.830;2022-08-03T16:24:44;36.50;99.90
2030;DHT22;1020;48.854;8.830;2022-08-03T16:27:12;36.60;99.90